Time,TemperatureF,DewpointF,PressureIn,WindDirection,WindDirectionDegrees,WindSpeedMPH,WindSpeedGustMPH,Humidity,HourlyPrecipIn,Conditions,Clouds,dailyrainin,SoftwareType,DateUTC
2013-05-07 00:00:00,55.4,54.3,29.96,SSW,210,0.0,1.1,96,0.00,,,0.00,VWS V14.01,2013-05-07 05:00:00,
2013-05-07 00:13:00,54.9,54.1,29.96,SW,218,0.0,0.0,97,0.00,,,0.00,VWS V14.01,2013-05-07 05:13:00,
2013-05-07 00:15:00,54.9,54.1,29.96,SW,218,0.0,0.0,97,0.00,,,0.00,VWS V14.01,2013-05-07 05:15:00,
2013-05-07 00:28:00,54.9,54.1,29.96,SW,229,0.0,1.1,97,0.00,,,0.00,VWS V14.01,2013-05-07 05:28:00,
2013-05-07 00:30:00,54.9,54.1,29.96,SW,229,0.0,1.1,97,0.00,,,0.00,VWS V14.01,2013-05-07 05:30:00,
2013-05-07 00:43:00,55.0,54.2,29.95,WSW,249,0.0,1.1,97,0.00,,,0.00,VWS V14.01,2013-05-07 05:43:00,
2013-05-07 00:45:00,55.0,54.2,29.95,WSW,249,0.0,1.1,97,0.00,,,0.00,VWS V14.01,2013-05-07 05:45:00,
2013-05-07 00:58:00,54.7,53.9,29.95,WSW,249,0.0,0.0,97,0.00,,,0.00,VWS V14.01,2013-05-07 05:58:00,
2013-05-07 01:00:00,54.7,53.9,29.95,WSW,249,0.0,0.0,97,0.00,,,0.00,VWS V14.01,2013-05-07 06:00:00,
2013-05-07 01:13:00,54.4,53.6,29.94,West,259,0.0,1.1,97,0.00,,,0.00,VWS V14.01,2013-05-07 06:13:00,
2013-05-07 01:15:00,54.4,53.6,29.94,West,259,0.0,1.1,97,0.00,,,0.00,VWS V14.01,2013-05-07 06:15:00,
2013-05-07 01:28:00,54.6,53.8,29.94,SW,222,0.0,1.1,97,0.00,,,0.00,VWS V14.01,2013-05-07 06:28:00,
2013-05-07 01:30:00,54.6,53.8,29.94,SW,222,0.0,1.1,97,0.00,,,0.00,VWS V14.01,2013-05-07 06:30:00,
2013-05-07 01:43:00,54.5,53.7,29.94,South,187,0.0,1.1,97,0.01,,,0.01,VWS V14.01,2013-05-07 06:43:00,
2013-05-07 01:45:00,54.5,53.7,29.94,South,187,0.0,1.1,97,0.01,,,0.01,VWS V14.01,2013-05-07 06:45:00,
2013-05-07 01:58:00,54.3,53.5,29.94,South,187,0.0,0.0,97,0.01,,,0.01,VWS V14.01,2013-05-07 06:58:00,
2013-05-07 02:00:00,54.3,53.5,29.94,South,187,0.0,0.0,97,0.01,,,0.01,VWS V14.01,2013-05-07 07:00:00,
2013-05-07 02:13:00,54.1,53.3,29.94,South,187,0.0,0.0,97,0.01,,,0.01,VWS V14.01,2013-05-07 07:13:00,
2013-05-07 02:15:00,54.1,53.3,29.94,South,187,0.0,0.0,97,0.01,,,0.01,VWS V14.01,2013-05-07 07:15:00,
2013-05-07 02:28:00,53.8,53.0,29.94,South,187,0.0,0.0,97,0.01,,,0.01,VWS V14.01,2013-05-07 07:28:00,
2013-05-07 02:30:00,53.8,53.0,29.94,South,187,0.0,0.0,97,0.01,,,0.01,VWS V14.01,2013-05-07 07:30:00,
2013-05-07 02:43:00,53.4,52.6,29.94,South,187,0.0,0.0,97,0.01,,,0.01,VWS V14.01,2013-05-07 07:43:00,
2013-05-07 02:45:00,53.4,52.6,29.94,South,187,0.0,0.0,97,0.01,,,0.01,VWS V14.01,2013-05-07 07:45:00,
2013-05-07 02:58:00,52.7,51.9,29.94,South,187,0.0,0.0,97,0.00,,,0.01,VWS V14.01,2013-05-07 07:58:00,
2013-05-07 03:00:00,52.7,51.9,29.94,South,187,0.0,0.0,97,0.00,,,0.01,VWS V14.01,2013-05-07 08:00:00,
2013-05-07 03:13:00,52.2,51.4,29.94,South,187,0.0,0.0,97,0.00,,,0.01,VWS V14.01,2013-05-07 08:13:00,
2013-05-07 03:15:00,52.2,51.4,29.94,South,187,0.0,0.0,97,0.00,,,0.01,VWS V14.01,2013-05-07 08:15:00,
2013-05-07 03:28:00,51.8,51.0,29.94,South,187,0.0,0.0,97,0.00,,,0.01,VWS V14.01,2013-05-07 08:28:00,
2013-05-07 03:30:00,51.8,51.0,29.94,South,187,0.0,0.0,97,0.00,,,0.01,VWS V14.01,2013-05-07 08:30:00,
2013-05-07 03:43:00,51.6,50.8,29.94,South,187,0.0,0.0,97,0.00,,,0.01,VWS V14.01,2013-05-07 08:43:00,
2013-05-07 03:45:00,51.6,50.8,29.94,South,187,0.0,0.0,97,0.00,,,0.01,VWS V14.01,2013-05-07 08:45:00,
2013-05-07 03:58:00,50.9,50.1,29.93,South,187,0.0,0.0,97,0.00,,,0.01,VWS V14.01,2013-05-07 08:58:00,
2013-05-07 04:00:00,50.9,50.1,29.93,South,187,0.0,0.0,97,0.00,,,0.01,VWS V14.01,2013-05-07 09:00:00,
2013-05-07 04:13:00,50.5,49.7,29.94,South,188,0.0,0.0,97,0.00,,,0.01,VWS V14.01,2013-05-07 09:13:00,
2013-05-07 04:15:00,50.5,49.7,29.94,South,188,0.0,0.0,97,0.00,,,0.01,VWS V14.01,2013-05-07 09:15:00,
2013-05-07 04:28:00,51.2,50.7,29.94,South,187,0.0,0.0,98,0.00,,,0.01,VWS V14.01,2013-05-07 09:28:00,
2013-05-07 04:30:00,51.2,50.7,29.94,South,187,0.0,0.0,98,0.00,,,0.01,VWS V14.01,2013-05-07 09:30:00,
2013-05-07 04:43:00,52.0,51.5,29.94,South,187,0.0,0.0,98,0.00,,,0.01,VWS V14.01,2013-05-07 09:43:00,
2013-05-07 04:45:00,52.0,51.5,29.94,South,187,0.0,0.0,98,0.00,,,0.01,VWS V14.01,2013-05-07 09:45:00,
2013-05-07 04:58:00,52.1,51.5,29.95,South,187,0.0,0.0,98,0.00,,,0.01,VWS V14.01,2013-05-07 09:58:00,
2013-05-07 05:00:00,52.1,51.6,29.95,South,187,0.0,0.0,98,0.00,,,0.01,VWS V14.01,2013-05-07 10:00:00,
2013-05-07 05:13:00,51.8,51.3,29.95,South,187,0.0,0.0,98,0.00,,,0.01,VWS V14.01,2013-05-07 10:13:00,
2013-05-07 05:15:00,51.8,51.3,29.95,South,187,0.0,0.0,98,0.00,,,0.01,VWS V14.01,2013-05-07 10:15:00,
2013-05-07 05:28:00,52.4,51.8,29.95,South,187,0.0,0.0,98,0.00,,,0.01,VWS V14.01,2013-05-07 10:28:00,
2013-05-07 05:30:00,52.4,51.8,29.95,South,187,0.0,0.0,98,0.00,,,0.01,VWS V14.01,2013-05-07 10:30:00,
2013-05-07 05:43:00,52.7,52.2,29.95,South,187,0.0,0.0,98,0.00,,,0.01,VWS V14.01,2013-05-07 10:43:00,
2013-05-07 05:45:00,52.7,52.2,29.95,South,187,0.0,0.0,98,0.00,,,0.01,VWS V14.01,2013-05-07 10:45:00,
2013-05-07 05:58:00,53.5,53.0,29.96,South,187,0.0,0.0,98,0.00,,,0.01,VWS V14.01,2013-05-07 10:58:00,
2013-05-07 06:00:00,53.5,53.0,29.96,South,187,0.0,0.0,98,0.00,,,0.01,VWS V14.01,2013-05-07 11:00:00,
2013-05-07 06:13:00,54.2,53.7,29.97,South,187,0.0,0.0,98,0.00,,,0.01,VWS V14.01,2013-05-07 11:13:00,
2013-05-07 06:15:00,54.2,53.7,29.97,South,187,0.0,0.0,98,0.00,,,0.01,VWS V14.01,2013-05-07 11:15:00,
2013-05-07 06:28:00,54.4,53.8,29.97,South,187,0.0,1.1,98,0.00,,,0.01,VWS V14.01,2013-05-07 11:28:00,
2013-05-07 06:30:00,54.4,53.8,29.97,South,187,0.0,1.1,98,0.00,,,0.01,VWS V14.01,2013-05-07 11:30:00,
2013-05-07 06:43:00,55.2,54.7,29.97,SSW,205,0.0,0.0,98,0.00,,,0.01,VWS V14.01,2013-05-07 11:43:00,
2013-05-07 06:45:00,55.2,54.7,29.97,SSW,205,0.0,0.0,98,0.00,,,0.01,VWS V14.01,2013-05-07 11:45:00,
2013-05-07 06:58:00,56.8,56.0,29.98,SSW,205,0.0,0.0,97,0.00,,,0.01,VWS V14.01,2013-05-07 11:58:00,
2013-05-07 07:00:00,56.8,56.0,29.98,SSW,205,0.0,0.0,97,0.00,,,0.01,VWS V14.01,2013-05-07 12:00:00,
2013-05-07 07:13:00,57.8,57.0,29.99,SSW,205,0.0,0.0,97,0.00,,,0.01,VWS V14.01,2013-05-07 12:13:00,
2013-05-07 07:15:00,57.8,57.0,29.99,SSW,205,0.0,0.0,97,0.00,,,0.01,VWS V14.01,2013-05-07 12:15:00,
2013-05-07 07:28:00,58.7,57.6,29.99,SW,232,0.0,1.1,96,0.00,,,0.01,VWS V14.01,2013-05-07 12:28:00,
2013-05-07 07:30:00,58.7,57.6,29.99,SW,232,0.0,1.1,96,0.00,,,0.01,VWS V14.01,2013-05-07 12:30:00,
2013-05-07 07:43:00,59.6,57.9,30.00,WSW,243,0.0,2.3,94,0.00,,,0.01,VWS V14.01,2013-05-07 12:43:00,
2013-05-07 07:45:00,59.6,57.9,30.00,WSW,243,0.0,2.3,94,0.00,,,0.01,VWS V14.01,2013-05-07 12:45:00,
2013-05-07 07:58:00,60.6,58.0,30.00,West,267,0.0,3.4,91,0.00,,,0.01,VWS V14.01,2013-05-07 12:58:00,
2013-05-07 08:00:00,60.6,58.0,30.00,West,267,0.0,3.5,91,0.00,,,0.01,VWS V14.01,2013-05-07 13:00:00,
2013-05-07 08:13:00,62.3,58.1,30.00,WSW,245,0.0,2.3,86,0.00,,,0.01,VWS V14.01,2013-05-07 13:13:00,
2013-05-07 08:15:00,62.3,58.1,30.00,WSW,245,0.0,2.3,86,0.00,,,0.01,VWS V14.01,2013-05-07 13:15:00,
2013-05-07 08:28:00,64.4,59.1,30.00,ENE,63,0.0,2.3,83,0.00,,,0.01,VWS V14.01,2013-05-07 13:28:00,
2013-05-07 08:30:00,64.4,59.1,30.00,ENE,63,0.0,2.3,83,0.00,,,0.01,VWS V14.01,2013-05-07 13:30:00,
2013-05-07 08:43:00,65.2,59.2,30.00,ENE,72,1.1,2.3,81,0.00,,,0.01,VWS V14.01,2013-05-07 13:43:00,
2013-05-07 08:45:00,65.2,59.2,30.00,ENE,72,1.1,2.3,81,0.00,,,0.01,VWS V14.01,2013-05-07 13:45:00,
2013-05-07 08:58:00,65.2,59.2,30.00,NE,51,0.0,5.8,81,0.00,,,0.01,VWS V14.01,2013-05-07 13:58:00,
2013-05-07 09:00:00,65.2,59.2,30.00,NE,51,0.0,5.8,81,0.00,,,0.01,VWS V14.01,2013-05-07 14:00:00,
2013-05-07 09:13:00,66.6,59.9,30.00,NW,319,0.0,1.1,79,0.00,,,0.01,VWS V14.01,2013-05-07 14:13:00,
2013-05-07 09:15:00,66.6,59.9,30.00,NW,319,0.0,1.1,79,0.00,,,0.01,VWS V14.01,2013-05-07 14:15:00,
2013-05-07 09:28:00,68.2,60.3,30.01,NNE,22,0.0,1.1,76,0.00,,,0.01,VWS V14.01,2013-05-07 14:28:00,
2013-05-07 09:30:00,68.2,60.3,30.01,NNE,22,0.0,1.1,76,0.00,,,0.01,VWS V14.01,2013-05-07 14:30:00,
2013-05-07 09:43:00,67.6,59.4,30.01,ENE,65,0.0,5.8,75,0.00,,,0.01,VWS V14.01,2013-05-07 14:43:00,
2013-05-07 09:45:00,67.6,59.4,30.01,ENE,65,0.0,5.8,75,0.00,,,0.01,VWS V14.01,2013-05-07 14:45:00,
2013-05-07 09:58:00,68.7,60.1,30.01,WNW,285,0.0,2.3,74,0.00,,,0.01,VWS V14.01,2013-05-07 14:58:00,
2013-05-07 10:00:00,68.7,60.1,30.01,WNW,285,0.0,2.3,74,0.00,,,0.01,VWS V14.01,2013-05-07 15:00:00,
2013-05-07 10:13:00,67.9,58.9,30.01,SSW,193,0.0,2.3,73,0.00,,,0.01,VWS V14.01,2013-05-07 15:13:00,
2013-05-07 10:15:00,67.9,58.9,30.01,SSW,193,0.0,2.3,73,0.00,,,0.01,VWS V14.01,2013-05-07 15:15:00,
2013-05-07 10:28:00,68.3,59.7,30.01,WSW,257,0.0,2.3,74,0.00,,,0.01,VWS V14.01,2013-05-07 15:28:00,
2013-05-07 10:30:00,68.3,59.7,30.01,WSW,257,0.0,2.3,74,0.00,,,0.01,VWS V14.01,2013-05-07 15:30:00,
2013-05-07 10:43:00,67.5,59.3,30.01,ESE,113,0.0,6.9,75,0.00,,,0.01,VWS V14.01,2013-05-07 15:43:00,
2013-05-07 10:45:00,67.5,59.3,30.01,ESE,113,0.0,6.9,75,0.00,,,0.01,VWS V14.01,2013-05-07 15:45:00,
2013-05-07 10:58:00,69.3,60.3,30.02,South,172,0.0,2.3,73,0.00,,,0.01,VWS V14.01,2013-05-07 15:58:00,
2013-05-07 11:00:00,69.3,60.3,30.02,South,172,0.0,2.3,73,0.00,,,0.01,VWS V14.01,2013-05-07 16:00:00,
2013-05-07 11:13:00,70.0,60.2,30.01,WSW,240,2.3,3.4,71,0.00,,,0.01,VWS V14.01,2013-05-07 16:13:00,
2013-05-07 11:15:00,70.0,60.2,30.01,WSW,240,2.3,3.5,71,0.00,,,0.01,VWS V14.01,2013-05-07 16:15:00,
2013-05-07 11:28:00,70.9,60.2,30.01,WSW,256,0.0,4.6,69,0.00,,,0.01,VWS V14.01,2013-05-07 16:28:00,
2013-05-07 11:30:00,70.9,60.2,30.01,WSW,256,0.0,4.6,69,0.00,,,0.01,VWS V14.01,2013-05-07 16:30:00,
2013-05-07 11:43:00,72.4,58.7,30.01,East,84,1.1,3.4,62,0.00,,,0.01,VWS V14.01,2013-05-07 16:43:00,
2013-05-07 11:45:00,72.4,58.7,30.01,East,84,1.1,3.5,62,0.00,,,0.01,VWS V14.01,2013-05-07 16:45:00,
2013-05-07 11:58:00,71.1,57.9,30.01,SW,231,0.0,2.3,63,0.00,,,0.01,VWS V14.01,2013-05-07 16:58:00,
2013-05-07 12:00:00,71.1,57.9,30.01,SW,231,0.0,2.3,63,0.00,,,0.01,VWS V14.01,2013-05-07 17:00:00,
2013-05-07 12:13:00,72.6,58.4,30.01,SW,233,0.0,2.3,61,0.00,,,0.01,VWS V14.01,2013-05-07 17:13:00,
2013-05-07 12:15:00,72.6,58.4,30.01,SW,233,0.0,2.3,61,0.00,,,0.01,VWS V14.01,2013-05-07 17:15:00,
2013-05-07 12:28:00,72.4,58.7,30.01,WSW,248,0.0,5.8,62,0.00,,,0.01,VWS V14.01,2013-05-07 17:28:00,
2013-05-07 12:30:00,72.4,58.7,30.01,WSW,248,0.0,5.8,62,0.00,,,0.01,VWS V14.01,2013-05-07 17:30:00,
2013-05-07 12:43:00,72.3,58.6,30.01,West,263,1.1,2.3,62,0.00,,,0.01,VWS V14.01,2013-05-07 17:43:00,
2013-05-07 12:45:00,72.3,58.6,30.01,West,263,1.1,2.3,62,0.00,,,0.01,VWS V14.01,2013-05-07 17:45:00,
2013-05-07 12:58:00,72.6,61.0,30.01,ESE,105,0.0,2.3,67,0.00,,,0.01,VWS V14.01,2013-05-07 17:58:00,
2013-05-07 13:00:00,72.6,61.0,30.01,ESE,105,0.0,2.3,67,0.00,,,0.01,VWS V14.01,2013-05-07 18:00:00,
2013-05-07 13:13:00,73.2,60.7,30.01,SW,234,0.0,1.1,65,0.00,,,0.01,VWS V14.01,2013-05-07 18:13:00,
2013-05-07 13:15:00,73.2,60.7,30.01,SW,234,0.0,1.1,65,0.00,,,0.01,VWS V14.01,2013-05-07 18:15:00,
2013-05-07 13:28:00,75.4,58.6,30.00,East,82,0.0,3.4,56,0.00,,,0.01,VWS V14.01,2013-05-07 18:28:00,
2013-05-07 13:30:00,75.4,58.6,30.00,East,82,0.0,3.5,56,0.00,,,0.01,VWS V14.01,2013-05-07 18:30:00,
2013-05-07 13:43:00,73.7,59.0,30.00,WSW,250,0.0,3.4,60,0.00,,,0.01,VWS V14.01,2013-05-07 18:43:00,
2013-05-07 13:45:00,73.7,59.0,30.00,WSW,250,0.0,3.5,60,0.00,,,0.01,VWS V14.01,2013-05-07 18:45:00,
2013-05-07 13:58:00,74.6,58.4,30.00,WSW,242,0.0,5.8,57,0.00,,,0.01,VWS V14.01,2013-05-07 18:58:00,
2013-05-07 14:00:00,74.6,58.4,30.00,WSW,242,0.0,5.8,57,0.00,,,0.01,VWS V14.01,2013-05-07 19:00:00,
2013-05-07 14:13:00,75.4,59.1,30.00,NW,305,1.1,4.6,57,0.00,,,0.01,VWS V14.01,2013-05-07 19:13:00,
2013-05-07 14:15:00,75.4,59.1,30.00,NW,305,1.1,4.6,57,0.00,,,0.01,VWS V14.01,2013-05-07 19:15:00,
2013-05-07 14:28:00,73.5,58.8,30.00,West,281,0.0,4.6,60,0.00,,,0.01,VWS V14.01,2013-05-07 19:28:00,
2013-05-07 14:30:00,73.5,58.8,30.00,West,281,0.0,4.6,60,0.00,,,0.01,VWS V14.01,2013-05-07 19:30:00,
2013-05-07 14:43:00,73.3,57.7,30.00,ENE,77,2.3,3.4,58,0.00,,,0.01,VWS V14.01,2013-05-07 19:43:00,
2013-05-07 14:45:00,73.3,57.7,30.00,ENE,77,2.3,3.5,58,0.00,,,0.01,VWS V14.01,2013-05-07 19:45:00,
2013-05-07 14:58:00,72.8,58.6,29.99,West,262,0.0,3.4,61,0.00,,,0.01,VWS V14.01,2013-05-07 19:58:00,
2013-05-07 15:00:00,72.8,58.6,29.99,West,262,0.0,3.5,61,0.00,,,0.01,VWS V14.01,2013-05-07 20:00:00,
2013-05-07 15:13:00,71.9,58.6,29.99,WSW,250,0.0,4.6,63,0.00,,,0.01,VWS V14.01,2013-05-07 20:13:00,
2013-05-07 15:15:00,71.9,58.6,29.99,WSW,250,0.0,4.6,63,0.00,,,0.01,VWS V14.01,2013-05-07 20:15:00,
2013-05-07 15:28:00,71.7,58.0,29.99,SSW,210,0.0,0.0,62,0.00,,,0.01,VWS V14.01,2013-05-07 20:28:00,
2013-05-07 15:30:00,71.7,58.0,29.99,SSW,210,0.0,0.0,62,0.00,,,0.01,VWS V14.01,2013-05-07 20:30:00,
2013-05-07 15:43:00,72.2,58.0,29.99,ENE,58,1.1,1.1,61,0.00,,,0.01,VWS V14.01,2013-05-07 20:43:00,
2013-05-07 15:45:00,72.2,58.0,29.99,ENE,58,1.1,1.1,61,0.00,,,0.01,VWS V14.01,2013-05-07 20:45:00,
2013-05-07 15:58:00,74.4,59.2,29.98,NNE,13,0.0,1.1,59,0.00,,,0.01,VWS V14.01,2013-05-07 20:58:00,
2013-05-07 16:00:00,74.4,59.2,29.98,NNE,13,0.0,1.1,59,0.00,,,0.01,VWS V14.01,2013-05-07 21:00:00,
2013-05-07 16:13:00,74.4,57.7,29.98,NE,39,0.0,2.3,56,0.00,,,0.01,VWS V14.01,2013-05-07 21:13:00,
2013-05-07 16:15:00,74.4,57.7,29.98,NE,39,0.0,2.3,56,0.00,,,0.01,VWS V14.01,2013-05-07 21:15:00,
2013-05-07 16:28:00,73.6,57.0,29.98,NW,326,0.0,3.4,56,0.00,,,0.01,VWS V14.01,2013-05-07 21:28:00,
2013-05-07 16:30:00,73.6,57.0,29.98,NW,326,0.0,3.5,56,0.00,,,0.01,VWS V14.01,2013-05-07 21:30:00,
2013-05-07 16:43:00,75.9,57.6,29.98,NNE,15,3.4,6.9,53,0.00,,,0.01,VWS V14.01,2013-05-07 21:43:00,
2013-05-07 16:45:00,75.9,57.6,29.98,NNE,15,3.5,6.9,53,0.00,,,0.01,VWS V14.01,2013-05-07 21:45:00,
2013-05-07 16:58:00,73.4,57.3,29.98,NNE,31,1.1,3.4,57,0.00,,,0.01,VWS V14.01,2013-05-07 21:58:00,
2013-05-07 17:00:00,73.4,57.3,29.98,NNE,31,1.1,3.5,57,0.00,,,0.01,VWS V14.01,2013-05-07 22:00:00,
2013-05-07 17:13:00,73.7,57.5,29.98,WNW,295,0.0,2.3,57,0.00,,,0.01,VWS V14.01,2013-05-07 22:13:00,
2013-05-07 17:15:00,73.7,57.5,29.98,WNW,295,0.0,2.3,57,0.00,,,0.01,VWS V14.01,2013-05-07 22:15:00,
2013-05-07 17:28:00,74.7,58.5,29.98,East,79,1.1,2.3,57,0.00,,,0.01,VWS V14.01,2013-05-07 22:28:00,
2013-05-07 17:30:00,74.7,58.5,29.98,East,79,1.1,2.3,57,0.00,,,0.01,VWS V14.01,2013-05-07 22:30:00,
2013-05-07 17:43:00,75.6,56.8,29.97,West,280,1.1,4.6,52,0.00,,,0.01,VWS V14.01,2013-05-07 22:43:00,
2013-05-07 17:45:00,75.6,56.8,29.97,West,280,1.1,4.6,52,0.00,,,0.01,VWS V14.01,2013-05-07 22:45:00,
2013-05-07 17:58:00,75.6,57.8,29.97,West,264,0.0,2.3,54,0.00,,,0.01,VWS V14.01,2013-05-07 22:58:00,
2013-05-07 18:00:00,75.6,57.8,29.97,West,264,0.0,2.3,54,0.00,,,0.01,VWS V14.01,2013-05-07 23:00:00,
2013-05-07 18:13:00,76.2,58.9,29.97,WSW,239,0.0,2.3,55,0.00,,,0.01,VWS V14.01,2013-05-07 23:13:00,
2013-05-07 18:15:00,76.2,58.9,29.97,WSW,239,0.0,2.3,55,0.00,,,0.01,VWS V14.01,2013-05-07 23:15:00,
2013-05-07 18:28:00,75.8,58.0,29.97,NE,37,0.0,2.3,54,0.00,,,0.01,VWS V14.01,2013-05-07 23:28:00,
2013-05-07 18:30:00,75.8,58.0,29.97,NE,37,0.0,2.3,54,0.00,,,0.01,VWS V14.01,2013-05-07 23:30:00,
2013-05-07 18:43:00,75.0,58.3,29.97,ENE,64,0.0,2.3,56,0.00,,,0.01,VWS V14.01,2013-05-07 23:43:00,
2013-05-07 18:45:00,75.0,58.3,29.97,ENE,64,0.0,2.3,56,0.00,,,0.01,VWS V14.01,2013-05-07 23:45:00,
2013-05-07 18:58:00,74.0,58.3,29.97,WSW,239,0.0,2.3,58,0.00,,,0.01,VWS V14.01,2013-05-07 23:58:00,
2013-05-07 19:00:00,74.0,58.3,29.97,WSW,239,0.0,2.3,58,0.00,,,0.01,VWS V14.01,2013-05-08 00:00:00,
2013-05-07 19:13:00,72.7,58.0,29.97,WSW,250,0.0,2.3,60,0.00,,,0.01,VWS V14.01,2013-05-08 00:13:00,
2013-05-07 19:15:00,72.7,58.0,29.97,WSW,250,0.0,2.3,60,0.00,,,0.01,VWS V14.01,2013-05-08 00:15:00,
2013-05-07 19:28:00,71.2,58.0,29.97,WSW,255,0.0,1.1,63,0.00,,,0.01,VWS V14.01,2013-05-08 00:28:00,
2013-05-07 19:30:00,71.2,58.0,29.97,WSW,255,0.0,1.1,63,0.00,,,0.01,VWS V14.01,2013-05-08 00:30:00,
2013-05-07 19:43:00,69.9,57.6,29.98,WSW,252,0.0,3.4,65,0.00,,,0.01,VWS V14.01,2013-05-08 00:43:00,
2013-05-07 19:45:00,69.9,57.6,29.98,WSW,252,0.0,3.5,65,0.00,,,0.01,VWS V14.01,2013-05-08 00:45:00,
2013-05-07 19:58:00,68.3,57.3,29.98,WSW,252,0.0,0.0,68,0.00,,,0.01,VWS V14.01,2013-05-08 00:58:00,
2013-05-07 20:00:00,68.3,57.3,29.98,WSW,252,0.0,0.0,68,0.00,,,0.01,VWS V14.01,2013-05-08 01:00:00,
2013-05-07 20:13:00,66.8,57.5,29.98,WSW,252,0.0,0.0,72,0.00,,,0.01,VWS V14.01,2013-05-08 01:13:00,
2013-05-07 20:15:00,66.8,57.5,29.98,WSW,252,0.0,0.0,72,0.00,,,0.01,VWS V14.01,2013-05-08 01:15:00,
2013-05-07 20:28:00,65.2,57.1,29.99,WSW,252,0.0,0.0,75,0.00,,,0.01,VWS V14.01,2013-05-08 01:28:00,
2013-05-07 20:30:00,65.2,57.1,29.99,WSW,252,0.0,0.0,75,0.00,,,0.01,VWS V14.01,2013-05-08 01:30:00,
2013-05-07 20:43:00,63.7,56.7,29.99,WSW,252,0.0,0.0,78,0.00,,,0.01,VWS V14.01,2013-05-08 01:43:00,
2013-05-07 20:45:00,63.7,56.7,29.99,WSW,252,0.0,0.0,78,0.00,,,0.01,VWS V14.01,2013-05-08 01:45:00,
2013-05-07 20:58:00,62.3,56.4,29.99,WSW,252,0.0,0.0,81,0.00,,,0.01,VWS V14.01,2013-05-08 01:58:00,
2013-05-07 21:00:00,62.3,56.4,29.99,WSW,252,0.0,0.0,81,0.00,,,0.01,VWS V14.01,2013-05-08 02:00:00,
2013-05-07 21:13:00,61.0,56.1,30.00,WSW,252,0.0,0.0,84,0.00,,,0.01,VWS V14.01,2013-05-08 02:13:00,
2013-05-07 21:15:00,61.0,56.1,30.00,WSW,252,0.0,0.0,84,0.00,,,0.01,VWS V14.01,2013-05-08 02:15:00,
2013-05-07 21:28:00,60.3,56.4,30.00,WSW,252,0.0,0.0,87,0.00,,,0.01,VWS V14.01,2013-05-08 02:28:00,
2013-05-07 21:30:00,60.3,56.4,30.00,WSW,252,0.0,0.0,87,0.00,,,0.01,VWS V14.01,2013-05-08 02:30:00,
2013-05-07 21:43:00,59.6,56.0,30.00,WSW,251,0.0,0.0,88,0.00,,,0.01,VWS V14.01,2013-05-08 02:43:00,
2013-05-07 21:45:00,59.6,56.0,30.00,WSW,251,0.0,0.0,88,0.00,,,0.01,VWS V14.01,2013-05-08 02:45:00,
2013-05-07 21:58:00,59.0,56.1,30.01,WSW,252,0.0,0.0,90,0.00,,,0.01,VWS V14.01,2013-05-08 02:58:00,
2013-05-07 22:00:00,59.0,56.1,30.01,WSW,252,0.0,0.0,90,0.00,,,0.01,VWS V14.01,2013-05-08 03:00:00,
2013-05-07 22:13:00,58.6,56.0,30.01,WSW,252,0.0,0.0,91,0.00,,,0.01,VWS V14.01,2013-05-08 03:13:00,
2013-05-07 22:15:00,58.6,56.0,30.01,WSW,252,0.0,0.0,91,0.00,,,0.01,VWS V14.01,2013-05-08 03:15:00,
2013-05-07 22:28:00,58.1,55.5,30.01,WSW,252,0.0,0.0,91,0.00,,,0.01,VWS V14.01,2013-05-08 03:28:00,
2013-05-07 22:30:00,58.1,55.5,30.01,WSW,252,0.0,0.0,91,0.00,,,0.01,VWS V14.01,2013-05-08 03:30:00,
2013-05-07 22:43:00,57.6,55.3,30.01,WSW,252,0.0,0.0,92,0.00,,,0.01,VWS V14.01,2013-05-08 03:43:00,
2013-05-07 22:58:00,57.0,55.0,30.00,WSW,252,0.0,0.0,93,0.00,,,0.01,VWS V14.01,2013-05-08 03:58:00,
2013-05-07 23:00:00,57.0,55.0,30.00,WSW,252,0.0,0.0,93,0.00,,,0.01,VWS V14.01,2013-05-08 04:00:00,
2013-05-07 23:13:00,56.9,54.9,30.01,WSW,252,0.0,0.0,93,0.00,,,0.01,VWS V14.01,2013-05-08 04:13:00,
2013-05-07 23:15:00,56.9,54.9,30.01,WSW,252,0.0,0.0,93,0.00,,,0.01,VWS V14.01,2013-05-08 04:15:00,
2013-05-07 23:28:00,56.6,54.9,30.01,WSW,252,0.0,0.0,94,0.00,,,0.01,VWS V14.01,2013-05-08 04:28:00,
2013-05-07 23:30:00,56.6,54.9,30.01,WSW,252,0.0,0.0,94,0.00,,,0.01,VWS V14.01,2013-05-08 04:30:00,
2013-05-07 23:43:00,56.3,54.6,30.01,WSW,252,0.0,0.0,94,0.00,,,0.01,VWS V14.01,2013-05-08 04:43:00,
2013-05-07 23:45:00,56.3,54.6,30.01,WSW,252,0.0,0.0,94,0.00,,,0.01,VWS V14.01,2013-05-08 04:45:00,
2013-05-07 23:58:00,55.9,54.2,30.01,WSW,252,0.0,0.0,94,0.00,,,0.01,VWS V14.01,2013-05-08 04:58:00,